sensor_id;sensor_type;location;lat;lon;timestamp;P1;durP1;ratioP1;P2;durP2;ratioP2
80136;SDS011;69466;55.948;37.484;2023-04-27T00:01:41;13.43;;;8.77;;
80136;SDS011;69466;55.948;37.484;2023-04-27T00:04:07;11.05;;;7.97;;
80136;SDS011;69466;55.948;37.484;2023-04-27T00:06:33;13.38;;;7.95;;
80136;SDS011;69466;55.948;37.484;2023-04-27T00:08:59;10.73;;;6.50;;
80136;SDS011;69466;55.948;37.484;2023-04-27T00:11:25;12.38;;;8.48;;
80136;SDS011;69466;55.948;37.484;2023-04-27T00:13:50;12.80;;;7.40;;
80136;SDS011;69466;55.948;37.484;2023-04-27T00:16:16;12.07;;;8.00;;
80136;SDS011;69466;55.948;37.484;2023-04-27T00:18:42;11.15;;;7.25;;
80136;SDS011;69466;55.948;37.484;2023-04-27T00:21:08;10.15;;;7.07;;
80136;SDS011;69466;55.948;37.484;2023-04-27T00:23:35;11.57;;;7.82;;
80136;SDS011;69466;55.948;37.484;2023-04-27T00:26:01;12.55;;;7.03;;
80136;SDS011;69466;55.948;37.484;2023-04-27T00:28:27;13.43;;;7.47;;
80136;SDS011;69466;55.948;37.484;2023-04-27T00:30:53;11.68;;;6.80;;
80136;SDS011;69466;55.948;37.484;2023-04-27T00:33:19;14.95;;;9.10;;
80136;SDS011;69466;55.948;37.484;2023-04-27T00:35:46;15.77;;;7.45;;
80136;SDS011;69466;55.948;37.484;2023-04-27T00:38:13;11.73;;;7.40;;
80136;SDS011;69466;55.948;37.484;2023-04-27T00:40:39;10.50;;;6.32;;
80136;SDS011;69466;55.948;37.484;2023-04-27T00:43:05;10.35;;;6.97;;
80136;SDS011;69466;55.948;37.484;2023-04-27T00:45:30;11.07;;;7.63;;
80136;SDS011;69466;55.948;37.484;2023-04-27T00:47:57;12.45;;;6.88;;
80136;SDS011;69466;55.948;37.484;2023-04-27T00:50:26;12.98;;;8.13;;
80136;SDS011;69466;55.948;37.484;2023-04-27T00:52:57;11.38;;;8.55;;
80136;SDS011;69466;55.948;37.484;2023-04-27T00:55:23;12.32;;;7.07;;
80136;SDS011;69466;55.948;37.484;2023-04-27T00:57:49;16.95;;;10.32;;
80136;SDS011;69466;55.948;37.484;2023-04-27T01:00:16;14.55;;;10.68;;
80136;SDS011;69466;55.948;37.484;2023-04-27T01:02:42;20.15;;;12.45;;
80136;SDS011;69466;55.948;37.484;2023-04-27T01:05:08;15.57;;;11.57;;
80136;SDS011;69466;55.948;37.484;2023-04-27T01:07:37;17.50;;;10.90;;
80136;SDS011;69466;55.948;37.484;2023-04-27T01:10:05;14.45;;;9.35;;
80136;SDS011;69466;55.948;37.484;2023-04-27T01:12:36;11.98;;;8.63;;
80136;SDS011;69466;55.948;37.484;2023-04-27T01:15:04;14.48;;;9.05;;
80136;SDS011;69466;55.948;37.484;2023-04-27T01:17:31;16.52;;;9.43;;
80136;SDS011;69466;55.948;37.484;2023-04-27T01:19:58;15.75;;;10.40;;
80136;SDS011;69466;55.948;37.484;2023-04-27T01:22:24;13.15;;;8.32;;
80136;SDS011;69466;55.948;37.484;2023-04-27T01:24:52;13.52;;;8.40;;
80136;SDS011;69466;55.948;37.484;2023-04-27T01:27:18;11.70;;;7.82;;
80136;SDS011;69466;55.948;37.484;2023-04-27T01:29:43;13.63;;;8.55;;
80136;SDS011;69466;55.948;37.484;2023-04-27T01:32:09;14.10;;;9.55;;
80136;SDS011;69466;55.948;37.484;2023-04-27T01:34:36;11.93;;;7.78;;
80136;SDS011;69466;55.948;37.484;2023-04-27T01:37:02;12.30;;;7.13;;
80136;SDS011;69466;55.948;37.484;2023-04-27T01:39:28;12.40;;;8.13;;
80136;SDS011;69466;55.948;37.484;2023-04-27T01:41:54;12.63;;;7.80;;
80136;SDS011;69466;55.948;37.484;2023-04-27T01:44:20;13.60;;;7.95;;
80136;SDS011;69466;55.948;37.484;2023-04-27T01:46:48;12.85;;;7.28;;
80136;SDS011;69466;55.948;37.484;2023-04-27T01:49:14;12.80;;;8.43;;
80136;SDS011;69466;55.948;37.484;2023-04-27T01:51:40;14.30;;;8.45;;
80136;SDS011;69466;55.948;37.484;2023-04-27T01:54:06;14.35;;;8.57;;
80136;SDS011;69466;55.948;37.484;2023-04-27T01:56:31;11.27;;;7.63;;
80136;SDS011;69466;55.948;37.484;2023-04-27T01:58:57;13.80;;;8.15;;
80136;SDS011;69466;55.948;37.484;2023-04-27T02:01:23;12.20;;;7.63;;
80136;SDS011;69466;55.948;37.484;2023-04-27T02:03:49;15.27;;;7.72;;
80136;SDS011;69466;55.948;37.484;2023-04-27T02:06:15;10.40;;;7.32;;
80136;SDS011;69466;55.948;37.484;2023-04-27T02:08:40;9.52;;;7.28;;
80136;SDS011;69466;55.948;37.484;2023-04-27T02:11:07;10.20;;;6.80;;
80136;SDS011;69466;55.948;37.484;2023-04-27T02:13:33;11.75;;;7.25;;
80136;SDS011;69466;55.948;37.484;2023-04-27T02:15:59;13.48;;;7.82;;
80136;SDS011;69466;55.948;37.484;2023-04-27T02:18:28;11.63;;;7.72;;
80136;SDS011;69466;55.948;37.484;2023-04-27T02:20:54;12.30;;;7.30;;
80136;SDS011;69466;55.948;37.484;2023-04-27T02:23:20;12.35;;;7.90;;
80136;SDS011;69466;55.948;37.484;2023-04-27T02:25:47;13.85;;;7.80;;
80136;SDS011;69466;55.948;37.484;2023-04-27T02:28:13;12.73;;;8.15;;
80136;SDS011;69466;55.948;37.484;2023-04-27T02:30:38;12.10;;;7.88;;
80136;SDS011;69466;55.948;37.484;2023-04-27T02:33:04;16.00;;;8.50;;
80136;SDS011;69466;55.948;37.484;2023-04-27T02:35:30;12.85;;;7.50;;
80136;SDS011;69466;55.948;37.484;2023-04-27T02:38:00;20.08;;;8.00;;
80136;SDS011;69466;55.948;37.484;2023-04-27T02:40:27;10.75;;;6.68;;
80136;SDS011;69466;55.948;37.484;2023-04-27T02:42:52;9.80;;;7.20;;
80136;SDS011;69466;55.948;37.484;2023-04-27T02:45:18;11.52;;;6.88;;
80136;SDS011;69466;55.948;37.484;2023-04-27T02:47:44;10.60;;;6.70;;
80136;SDS011;69466;55.948;37.484;2023-04-27T02:50:12;10.32;;;7.55;;
80136;SDS011;69466;55.948;37.484;2023-04-27T02:52:38;10.90;;;6.85;;
80136;SDS011;69466;55.948;37.484;2023-04-27T02:55:04;8.93;;;6.38;;
80136;SDS011;69466;55.948;37.484;2023-04-27T02:57:30;9.55;;;5.82;;
80136;SDS011;69466;55.948;37.484;2023-04-27T02:59:56;8.52;;;5.70;;
80136;SDS011;69466;55.948;37.484;2023-04-27T03:02:22;8.90;;;5.78;;
80136;SDS011;69466;55.948;37.484;2023-04-27T03:04:50;9.70;;;6.18;;
80136;SDS011;69466;55.948;37.484;2023-04-27T03:07:18;7.97;;;6.13;;
80136;SDS011;69466;55.948;37.484;2023-04-27T03:09:43;7.72;;;5.80;;
80136;SDS011;69466;55.948;37.484;2023-04-27T03:12:09;9.07;;;6.70;;
80136;SDS011;69466;55.948;37.484;2023-04-27T03:14:35;15.02;;;5.60;;
80136;SDS011;69466;55.948;37.484;2023-04-27T03:17:01;12.48;;;8.23;;
80136;SDS011;69466;55.948;37.484;2023-04-27T03:19:28;9.82;;;6.05;;
80136;SDS011;69466;55.948;37.484;2023-04-27T03:21:56;9.73;;;5.88;;
80136;SDS011;69466;55.948;37.484;2023-04-27T03:24:21;8.20;;;6.03;;
80136;SDS011;69466;55.948;37.484;2023-04-27T03:26:50;9.00;;;5.82;;
80136;SDS011;69466;55.948;37.484;2023-04-27T03:29:16;9.93;;;5.95;;
80136;SDS011;69466;55.948;37.484;2023-04-27T03:31:43;10.32;;;6.25;;
80136;SDS011;69466;55.948;37.484;2023-04-27T03:34:09;9.82;;;6.05;;
80136;SDS011;69466;55.948;37.484;2023-04-27T03:36:37;7.78;;;5.63;;
80136;SDS011;69466;55.948;37.484;2023-04-27T03:39:03;9.93;;;5.82;;
80136;SDS011;69466;55.948;37.484;2023-04-27T03:41:29;9.77;;;6.00;;
80136;SDS011;69466;55.948;37.484;2023-04-27T03:43:54;9.80;;;5.32;;
80136;SDS011;69466;55.948;37.484;2023-04-27T03:46:21;9.20;;;5.40;;
80136;SDS011;69466;55.948;37.484;2023-04-27T03:48:47;9.20;;;6.25;;
80136;SDS011;69466;55.948;37.484;2023-04-27T03:51:14;7.30;;;5.85;;
80136;SDS011;69466;55.948;37.484;2023-04-27T03:53:42;11.35;;;6.57;;
80136;SDS011;69466;55.948;37.484;2023-04-27T03:56:08;10.18;;;5.72;;
80136;SDS011;69466;55.948;37.484;2023-04-27T03:58:34;10.63;;;6.30;;
80136;SDS011;69466;55.948;37.484;2023-04-27T04:01:20;10.65;;;6.35;;
80136;SDS011;69466;55.948;37.484;2023-04-27T04:03:47;10.48;;;6.18;;
80136;SDS011;69466;55.948;37.484;2023-04-27T04:06:12;10.85;;;6.18;;
80136;SDS011;69466;55.948;37.484;2023-04-27T04:08:38;12.70;;;6.50;;
80136;SDS011;69466;55.948;37.484;2023-04-27T04:11:04;9.95;;;7.88;;
80136;SDS011;69466;55.948;37.484;2023-04-27T04:13:30;11.57;;;7.43;;
80136;SDS011;69466;55.948;37.484;2023-04-27T04:16:03;11.45;;;7.30;;
80136;SDS011;69466;55.948;37.484;2023-04-27T04:18:31;12.48;;;7.80;;
80136;SDS011;69466;55.948;37.484;2023-04-27T04:20:57;16.88;;;9.60;;
80136;SDS011;69466;55.948;37.484;2023-04-27T04:23:23;12.77;;;8.35;;
80136;SDS011;69466;55.948;37.484;2023-04-27T04:25:49;12.70;;;8.85;;
80136;SDS011;69466;55.948;37.484;2023-04-27T04:28:15;11.68;;;8.75;;
80136;SDS011;69466;55.948;37.484;2023-04-27T04:30:42;18.10;;;10.43;;
80136;SDS011;69466;55.948;37.484;2023-04-27T04:33:08;15.30;;;11.07;;
80136;SDS011;69466;55.948;37.484;2023-04-27T04:35:38;17.30;;;10.40;;
80136;SDS011;69466;55.948;37.484;2023-04-27T04:38:04;14.65;;;9.50;;
80136;SDS011;69466;55.948;37.484;2023-04-27T04:40:30;19.08;;;11.13;;
80136;SDS011;69466;55.948;37.484;2023-04-27T04:42:56;17.88;;;10.82;;
80136;SDS011;69466;55.948;37.484;2023-04-27T04:45:22;15.20;;;9.00;;
80136;SDS011;69466;55.948;37.484;2023-04-27T04:47:48;11.30;;;7.82;;
80136;SDS011;69466;55.948;37.484;2023-04-27T04:50:14;12.65;;;8.80;;
80136;SDS011;69466;55.948;37.484;2023-04-27T04:52:40;16.25;;;9.07;;
80136;SDS011;69466;55.948;37.484;2023-04-27T04:55:06;11.05;;;6.15;;
80136;SDS011;69466;55.948;37.484;2023-04-27T04:57:32;12.05;;;7.15;;
80136;SDS011;69466;55.948;37.484;2023-04-27T04:59:58;11.27;;;6.40;;
80136;SDS011;69466;55.948;37.484;2023-04-27T05:02:24;11.32;;;5.85;;
80136;SDS011;69466;55.948;37.484;2023-04-27T05:04:50;17.30;;;9.15;;
80136;SDS011;69466;55.948;37.484;2023-04-27T05:07:16;12.35;;;7.57;;
80136;SDS011;69466;55.948;37.484;2023-04-27T05:09:42;13.95;;;7.18;;
80136;SDS011;69466;55.948;37.484;2023-04-27T05:12:08;12.10;;;6.57;;
80136;SDS011;69466;55.948;37.484;2023-04-27T05:14:34;14.85;;;6.75;;
80136;SDS011;69466;55.948;37.484;2023-04-27T05:17:00;12.70;;;7.50;;
80136;SDS011;69466;55.948;37.484;2023-04-27T05:19:29;9.93;;;5.97;;
80136;SDS011;69466;55.948;37.484;2023-04-27T05:21:56;10.73;;;6.18;;
80136;SDS011;69466;55.948;37.484;2023-04-27T05:24:23;11.93;;;5.90;;
80136;SDS011;69466;55.948;37.484;2023-04-27T05:26:50;9.15;;;4.90;;
80136;SDS011;69466;55.948;37.484;2023-04-27T05:29:16;8.05;;;4.93;;
80136;SDS011;69466;55.948;37.484;2023-04-27T05:31:42;8.90;;;4.53;;
80136;SDS011;69466;55.948;37.484;2023-04-27T05:34:08;10.73;;;4.28;;
80136;SDS011;69466;55.948;37.484;2023-04-27T05:36:35;10.85;;;5.15;;
80136;SDS011;69466;55.948;37.484;2023-04-27T05:39:01;7.32;;;4.30;;
80136;SDS011;69466;55.948;37.484;2023-04-27T05:41:28;10.48;;;5.18;;
80136;SDS011;69466;55.948;37.484;2023-04-27T05:43:54;10.18;;;5.50;;
80136;SDS011;69466;55.948;37.484;2023-04-27T05:46:20;18.15;;;6.43;;
80136;SDS011;69466;55.948;37.484;2023-04-27T05:48:46;13.15;;;7.53;;
80136;SDS011;69466;55.948;37.484;2023-04-27T05:51:11;12.82;;;6.35;;
80136;SDS011;69466;55.948;37.484;2023-04-27T05:53:39;9.35;;;5.40;;
80136;SDS011;69466;55.948;37.484;2023-04-27T05:56:06;13.45;;;6.57;;
80136;SDS011;69466;55.948;37.484;2023-04-27T05:58:32;15.10;;;6.97;;
80136;SDS011;69466;55.948;37.484;2023-04-27T06:00:59;17.77;;;7.00;;
80136;SDS011;69466;55.948;37.484;2023-04-27T06:03:26;15.45;;;6.22;;
80136;SDS011;69466;55.948;37.484;2023-04-27T06:05:53;11.25;;;5.57;;
80136;SDS011;69466;55.948;37.484;2023-04-27T06:08:20;10.77;;;5.78;;
80136;SDS011;69466;55.948;37.484;2023-04-27T06:10:46;9.80;;;3.67;;
80136;SDS011;69466;55.948;37.484;2023-04-27T06:13:11;9.25;;;3.65;;
80136;SDS011;69466;55.948;37.484;2023-04-27T06:15:37;8.57;;;3.92;;
80136;SDS011;69466;55.948;37.484;2023-04-27T06:18:03;11.40;;;4.55;;
80136;SDS011;69466;55.948;37.484;2023-04-27T06:20:29;11.75;;;4.97;;
80136;SDS011;69466;55.948;37.484;2023-04-27T06:22:56;11.65;;;4.80;;
80136;SDS011;69466;55.948;37.484;2023-04-27T06:25:22;12.07;;;4.88;;
80136;SDS011;69466;55.948;37.484;2023-04-27T06:27:48;12.82;;;4.20;;
80136;SDS011;69466;55.948;37.484;2023-04-27T06:30:15;11.43;;;4.50;;
80136;SDS011;69466;55.948;37.484;2023-04-27T06:32:41;9.32;;;3.75;;
80136;SDS011;69466;55.948;37.484;2023-04-27T06:35:06;11.02;;;4.82;;
80136;SDS011;69466;55.948;37.484;2023-04-27T06:37:32;8.32;;;4.00;;
80136;SDS011;69466;55.948;37.484;2023-04-27T06:39:58;11.30;;;5.05;;
80136;SDS011;69466;55.948;37.484;2023-04-27T06:42:24;13.23;;;5.15;;
80136;SDS011;69466;55.948;37.484;2023-04-27T06:44:54;11.50;;;5.22;;
80136;SDS011;69466;55.948;37.484;2023-04-27T06:47:21;14.38;;;5.10;;
80136;SDS011;69466;55.948;37.484;2023-04-27T06:49:47;12.68;;;5.78;;
80136;SDS011;69466;55.948;37.484;2023-04-27T06:52:13;16.92;;;7.50;;
80136;SDS011;69466;55.948;37.484;2023-04-27T06:54:38;22.52;;;8.80;;
80136;SDS011;69466;55.948;37.484;2023-04-27T06:57:05;12.13;;;8.10;;
80136;SDS011;69466;55.948;37.484;2023-04-27T06:59:31;19.23;;;9.23;;
80136;SDS011;69466;55.948;37.484;2023-04-27T07:01:56;15.55;;;8.82;;
80136;SDS011;69466;55.948;37.484;2023-04-27T07:04:23;13.52;;;9.25;;
80136;SDS011;69466;55.948;37.484;2023-04-27T07:06:49;17.13;;;9.02;;
80136;SDS011;69466;55.948;37.484;2023-04-27T07:09:16;16.10;;;9.20;;
80136;SDS011;69466;55.948;37.484;2023-04-27T07:11:42;13.18;;;8.27;;
80136;SDS011;69466;55.948;37.484;2023-04-27T07:14:08;15.27;;;8.05;;
80136;SDS011;69466;55.948;37.484;2023-04-27T07:16:34;17.98;;;7.18;;
80136;SDS011;69466;55.948;37.484;2023-04-27T07:19:03;10.20;;;5.70;;
80136;SDS011;69466;55.948;37.484;2023-04-27T07:21:29;8.93;;;5.28;;
80136;SDS011;69466;55.948;37.484;2023-04-27T07:23:55;13.27;;;5.57;;
80136;SDS011;69466;55.948;37.484;2023-04-27T07:26:21;7.65;;;4.28;;
80136;SDS011;69466;55.948;37.484;2023-04-27T07:28:49;9.18;;;4.50;;
80136;SDS011;69466;55.948;37.484;2023-04-27T07:31:15;11.32;;;4.78;;
80136;SDS011;69466;55.948;37.484;2023-04-27T07:33:41;10.40;;;4.82;;
80136;SDS011;69466;55.948;37.484;2023-04-27T07:36:06;9.00;;;4.50;;
80136;SDS011;69466;55.948;37.484;2023-04-27T07:38:33;9.70;;;4.97;;
80136;SDS011;69466;55.948;37.484;2023-04-27T07:40:59;15.50;;;5.35;;
80136;SDS011;69466;55.948;37.484;2023-04-27T07:43:27;12.13;;;5.80;;
80136;SDS011;69466;55.948;37.484;2023-04-27T07:45:53;11.05;;;5.13;;
80136;SDS011;69466;55.948;37.484;2023-04-27T07:48:20;7.63;;;4.68;;
80136;SDS011;69466;55.948;37.484;2023-04-27T07:50:46;8.82;;;4.82;;
80136;SDS011;69466;55.948;37.484;2023-04-27T07:53:13;13.07;;;5.05;;
80136;SDS011;69466;55.948;37.484;2023-04-27T07:55:42;12.85;;;5.78;;
80136;SDS011;69466;55.948;37.484;2023-04-27T07:58:08;12.05;;;5.53;;
80136;SDS011;69466;55.948;37.484;2023-04-27T08:00:35;8.65;;;5.22;;
80136;SDS011;69466;55.948;37.484;2023-04-27T08:03:01;9.05;;;5.47;;
80136;SDS011;69466;55.948;37.484;2023-04-27T08:05:27;10.27;;;4.85;;
80136;SDS011;69466;55.948;37.484;2023-04-27T08:07:53;12.63;;;4.80;;
80136;SDS011;69466;55.948;37.484;2023-04-27T08:10:19;7.22;;;4.47;;
80136;SDS011;69466;55.948;37.484;2023-04-27T08:12:45;12.45;;;4.50;;
80136;SDS011;69466;55.948;37.484;2023-04-27T08:15:11;9.13;;;4.10;;
80136;SDS011;69466;55.948;37.484;2023-04-27T08:17:37;6.60;;;3.85;;
80136;SDS011;69466;55.948;37.484;2023-04-27T08:20:07;7.05;;;3.70;;
80136;SDS011;69466;55.948;37.484;2023-04-27T08:22:36;7.43;;;3.75;;
80136;SDS011;69466;55.948;37.484;2023-04-27T08:25:02;8.30;;;3.88;;
80136;SDS011;69466;55.948;37.484;2023-04-27T08:27:29;7.60;;;4.10;;
80136;SDS011;69466;55.948;37.484;2023-04-27T08:29:55;9.10;;;4.05;;
80136;SDS011;69466;55.948;37.484;2023-04-27T08:32:21;7.38;;;4.30;;
80136;SDS011;69466;55.948;37.484;2023-04-27T08:34:47;8.82;;;4.88;;
80136;SDS011;69466;55.948;37.484;2023-04-27T08:37:12;6.65;;;3.78;;
80136;SDS011;69466;55.948;37.484;2023-04-27T08:39:38;11.27;;;3.78;;
80136;SDS011;69466;55.948;37.484;2023-04-27T08:42:11;7.93;;;3.92;;
80136;SDS011;69466;55.948;37.484;2023-04-27T08:44:41;9.43;;;3.97;;
80136;SDS011;69466;55.948;37.484;2023-04-27T08:47:09;6.28;;;3.80;;
80136;SDS011;69466;55.948;37.484;2023-04-27T08:49:36;8.38;;;4.78;;
80136;SDS011;69466;55.948;37.484;2023-04-27T08:52:10;8.10;;;3.83;;
80136;SDS011;69466;55.948;37.484;2023-04-27T08:54:39;7.40;;;4.13;;
80136;SDS011;69466;55.948;37.484;2023-04-27T08:57:09;8.48;;;3.45;;
80136;SDS011;69466;55.948;37.484;2023-04-27T08:59:37;6.32;;;3.67;;
80136;SDS011;69466;55.948;37.484;2023-04-27T09:02:16;8.43;;;3.78;;
80136;SDS011;69466;55.948;37.484;2023-04-27T09:04:44;8.82;;;5.07;;
80136;SDS011;69466;55.948;37.484;2023-04-27T09:07:13;7.95;;;3.83;;
80136;SDS011;69466;55.948;37.484;2023-04-27T09:09:40;7.25;;;3.70;;
80136;SDS011;69466;55.948;37.484;2023-04-27T09:12:19;5.45;;;3.28;;
80136;SDS011;69466;55.948;37.484;2023-04-27T09:14:56;7.70;;;3.92;;
80136;SDS011;69466;55.948;37.484;2023-04-27T09:17:31;8.07;;;3.65;;
80136;SDS011;69466;55.948;37.484;2023-04-27T09:20:04;7.28;;;3.47;;
80136;SDS011;69466;55.948;37.484;2023-04-27T09:22:47;6.65;;;3.63;;
80136;SDS011;69466;55.948;37.484;2023-04-27T09:25:24;5.97;;;3.70;;
80136;SDS011;69466;55.948;37.484;2023-04-27T09:27:54;7.82;;;3.65;;
80136;SDS011;69466;55.948;37.484;2023-04-27T09:30:23;8.25;;;4.10;;
80136;SDS011;69466;55.948;37.484;2023-04-27T09:32:50;7.05;;;4.55;;
80136;SDS011;69466;55.948;37.484;2023-04-27T09:35:21;13.52;;;4.30;;
80136;SDS011;69466;55.948;37.484;2023-04-27T09:37:49;8.43;;;4.80;;
80136;SDS011;69466;55.948;37.484;2023-04-27T09:40:20;10.48;;;5.40;;
80136;SDS011;69466;55.948;37.484;2023-04-27T09:43:01;6.75;;;4.60;;
80136;SDS011;69466;55.948;37.484;2023-04-27T09:45:27;12.43;;;5.15;;
80136;SDS011;69466;55.948;37.484;2023-04-27T09:47:54;10.90;;;4.38;;
80136;SDS011;69466;55.948;37.484;2023-04-27T09:50:20;12.05;;;5.20;;
80136;SDS011;69466;55.948;37.484;2023-04-27T09:52:47;10.73;;;4.85;;
80136;SDS011;69466;55.948;37.484;2023-04-27T09:55:15;8.35;;;4.72;;
80136;SDS011;69466;55.948;37.484;2023-04-27T10:03:21;10.10;;;5.20;;
80136;SDS011;69466;55.948;37.484;2023-04-27T10:08:46;9.18;;;5.93;;
80136;SDS011;69466;55.948;37.484;2023-04-27T10:11:15;10.95;;;5.97;;
80136;SDS011;69466;55.948;37.484;2023-04-27T10:13:51;8.65;;;4.95;;
80136;SDS011;69466;55.948;37.484;2023-04-27T10:16:18;8.32;;;5.00;;
80136;SDS011;69466;55.948;37.484;2023-04-27T10:18:52;9.98;;;5.45;;
80136;SDS011;69466;55.948;37.484;2023-04-27T10:21:19;11.48;;;4.90;;
80136;SDS011;69466;55.948;37.484;2023-04-27T10:23:49;10.38;;;5.53;;
80136;SDS011;69466;55.948;37.484;2023-04-27T10:26:25;11.23;;;5.47;;
80136;SDS011;69466;55.948;37.484;2023-04-27T10:28:55;8.85;;;5.30;;
80136;SDS011;69466;55.948;37.484;2023-04-27T10:31:26;10.05;;;5.30;;
80136;SDS011;69466;55.948;37.484;2023-04-27T10:34:03;8.35;;;4.88;;
80136;SDS011;69466;55.948;37.484;2023-04-27T10:36:38;9.63;;;4.80;;
80136;SDS011;69466;55.948;37.484;2023-04-27T10:39:19;8.32;;;4.53;;
80136;SDS011;69466;55.948;37.484;2023-04-27T10:41:54;5.53;;;3.60;;
80136;SDS011;69466;55.948;37.484;2023-04-27T10:44:25;7.05;;;4.32;;
80136;SDS011;69466;55.948;37.484;2023-04-27T10:46:58;9.98;;;4.03;;
80136;SDS011;69466;55.948;37.484;2023-04-27T10:49:26;7.13;;;4.30;;
80136;SDS011;69466;55.948;37.484;2023-04-27T10:51:58;7.03;;;4.40;;
80136;SDS011;69466;55.948;37.484;2023-04-27T10:54:28;6.65;;;3.92;;
80136;SDS011;69466;55.948;37.484;2023-04-27T10:57:02;6.47;;;4.03;;
80136;SDS011;69466;55.948;37.484;2023-04-27T10:59:33;7.10;;;4.30;;
80136;SDS011;69466;55.948;37.484;2023-04-27T11:02:01;12.23;;;4.45;;
80136;SDS011;69466;55.948;37.484;2023-04-27T11:04:37;9.07;;;4.38;;
80136;SDS011;69466;55.948;37.484;2023-04-27T11:07:05;10.55;;;4.70;;
80136;SDS011;69466;55.948;37.484;2023-04-27T11:09:36;8.25;;;4.53;;
80136;SDS011;69466;55.948;37.484;2023-04-27T11:12:07;5.95;;;4.25;;
80136;SDS011;69466;55.948;37.484;2023-04-27T11:17:03;5.78;;;4.00;;
80136;SDS011;69466;55.948;37.484;2023-04-27T11:19:29;5.72;;;3.40;;
80136;SDS011;69466;55.948;37.484;2023-04-27T11:22:04;8.65;;;3.67;;
80136;SDS011;69466;55.948;37.484;2023-04-27T11:24:32;6.30;;;3.70;;
80136;SDS011;69466;55.948;37.484;2023-04-27T11:26:58;6.63;;;4.07;;
80136;SDS011;69466;55.948;37.484;2023-04-27T11:29:24;5.40;;;3.53;;
80136;SDS011;69466;55.948;37.484;2023-04-27T11:31:50;7.28;;;4.95;;
80136;SDS011;69466;55.948;37.484;2023-04-27T11:34:20;5.80;;;3.95;;
80136;SDS011;69466;55.948;37.484;2023-04-27T11:36:57;8.55;;;4.50;;
80136;SDS011;69466;55.948;37.484;2023-04-27T11:39:38;6.53;;;4.93;;
80136;SDS011;69466;55.948;37.484;2023-04-27T11:42:22;7.95;;;4.50;;
80136;SDS011;69466;55.948;37.484;2023-04-27T11:45:04;7.97;;;4.63;;
80136;SDS011;69466;55.948;37.484;2023-04-27T11:47:33;7.15;;;4.50;;
80136;SDS011;69466;55.948;37.484;2023-04-27T11:50:03;7.53;;;4.28;;
80136;SDS011;69466;55.948;37.484;2023-04-27T11:52:33;7.50;;;4.18;;
80136;SDS011;69466;55.948;37.484;2023-04-27T11:55:00;7.88;;;4.53;;
80136;SDS011;69466;55.948;37.484;2023-04-27T11:57:31;7.15;;;4.35;;
80136;SDS011;69466;55.948;37.484;2023-04-27T11:59:59;6.70;;;4.00;;
80136;SDS011;69466;55.948;37.484;2023-04-27T12:02:29;8.85;;;4.70;;
80136;SDS011;69466;55.948;37.484;2023-04-27T12:04:57;9.15;;;5.10;;
80136;SDS011;69466;55.948;37.484;2023-04-27T12:07:23;9.48;;;5.53;;
80136;SDS011;69466;55.948;37.484;2023-04-27T12:09:49;10.95;;;5.05;;
80136;SDS011;69466;55.948;37.484;2023-04-27T12:12:22;7.82;;;5.32;;
80136;SDS011;69466;55.948;37.484;2023-04-27T12:14:49;8.07;;;5.53;;
80136;SDS011;69466;55.948;37.484;2023-04-27T12:17:16;8.00;;;4.75;;
80136;SDS011;69466;55.948;37.484;2023-04-27T12:19:43;8.48;;;5.10;;
80136;SDS011;69466;55.948;37.484;2023-04-27T12:22:10;10.05;;;5.10;;
80136;SDS011;69466;55.948;37.484;2023-04-27T12:24:36;10.57;;;5.90;;
80136;SDS011;69466;55.948;37.484;2023-04-27T12:27:02;7.82;;;4.68;;
80136;SDS011;69466;55.948;37.484;2023-04-27T12:29:31;7.53;;;4.47;;
80136;SDS011;69466;55.948;37.484;2023-04-27T12:31:59;9.68;;;4.43;;
80136;SDS011;69466;55.948;37.484;2023-04-27T12:34:25;7.68;;;4.72;;
80136;SDS011;69466;55.948;37.484;2023-04-27T12:36:54;10.90;;;3.97;;
80136;SDS011;69466;55.948;37.484;2023-04-27T12:39:21;12.30;;;5.10;;
80136;SDS011;69466;55.948;37.484;2023-04-27T12:41:51;7.10;;;4.30;;
80136;SDS011;69466;55.948;37.484;2023-04-27T12:44:18;7.90;;;4.65;;
80136;SDS011;69466;55.948;37.484;2023-04-27T12:46:44;7.22;;;4.60;;
80136;SDS011;69466;55.948;37.484;2023-04-27T12:49:12;8.40;;;4.43;;
80136;SDS011;69466;55.948;37.484;2023-04-27T12:51:51;7.47;;;4.75;;
80136;SDS011;69466;55.948;37.484;2023-04-27T12:54:21;10.30;;;4.72;;
80136;SDS011;69466;55.948;37.484;2023-04-27T12:56:47;11.85;;;5.18;;
80136;SDS011;69466;55.948;37.484;2023-04-27T12:59:13;9.10;;;4.80;;
80136;SDS011;69466;55.948;37.484;2023-04-27T13:01:38;11.35;;;5.10;;
80136;SDS011;69466;55.948;37.484;2023-04-27T13:04:05;6.55;;;4.63;;
80136;SDS011;69466;55.948;37.484;2023-04-27T13:06:31;7.75;;;3.97;;
80136;SDS011;69466;55.948;37.484;2023-04-27T13:08:58;7.43;;;3.78;;
80136;SDS011;69466;55.948;37.484;2023-04-27T13:11:24;9.27;;;4.07;;
80136;SDS011;69466;55.948;37.484;2023-04-27T13:13:50;9.57;;;4.47;;
80136;SDS011;69466;55.948;37.484;2023-04-27T13:16:16;7.82;;;4.72;;
80136;SDS011;69466;55.948;37.484;2023-04-27T13:18:44;6.20;;;3.92;;
80136;SDS011;69466;55.948;37.484;2023-04-27T13:21:13;9.07;;;4.43;;
80136;SDS011;69466;55.948;37.484;2023-04-27T13:23:39;7.80;;;4.47;;
80136;SDS011;69466;55.948;37.484;2023-04-27T13:26:08;11.20;;;5.00;;
80136;SDS011;69466;55.948;37.484;2023-04-27T13:28:35;10.05;;;4.63;;
80136;SDS011;69466;55.948;37.484;2023-04-27T13:31:00;11.25;;;4.57;;
80136;SDS011;69466;55.948;37.484;2023-04-27T13:33:27;8.10;;;4.22;;
80136;SDS011;69466;55.948;37.484;2023-04-27T13:35:53;5.45;;;3.72;;
80136;SDS011;69466;55.948;37.484;2023-04-27T13:38:19;7.60;;;4.40;;
80136;SDS011;69466;55.948;37.484;2023-04-27T13:40:44;7.90;;;4.20;;
80136;SDS011;69466;55.948;37.484;2023-04-27T13:43:10;8.23;;;4.20;;
80136;SDS011;69466;55.948;37.484;2023-04-27T13:45:36;6.78;;;3.75;;
80136;SDS011;69466;55.948;37.484;2023-04-27T13:48:05;6.65;;;3.83;;
80136;SDS011;69466;55.948;37.484;2023-04-27T13:50:32;6.57;;;4.00;;
80136;SDS011;69466;55.948;37.484;2023-04-27T13:52:58;7.38;;;3.97;;
80136;SDS011;69466;55.948;37.484;2023-04-27T13:55:26;4.97;;;3.10;;
80136;SDS011;69466;55.948;37.484;2023-04-27T13:57:53;7.50;;;3.30;;
80136;SDS011;69466;55.948;37.484;2023-04-27T14:00:19;5.15;;;3.30;;
80136;SDS011;69466;55.948;37.484;2023-04-27T14:02:45;6.43;;;3.42;;
80136;SDS011;69466;55.948;37.484;2023-04-27T14:05:10;5.90;;;3.22;;
80136;SDS011;69466;55.948;37.484;2023-04-27T14:07:36;5.38;;;3.30;;
80136;SDS011;69466;55.948;37.484;2023-04-27T14:10:03;5.78;;;3.17;;
80136;SDS011;69466;55.948;37.484;2023-04-27T14:12:30;4.75;;;3.40;;
80136;SDS011;69466;55.948;37.484;2023-04-27T14:14:58;6.55;;;3.28;;
80136;SDS011;69466;55.948;37.484;2023-04-27T14:17:24;6.35;;;3.33;;
80136;SDS011;69466;55.948;37.484;2023-04-27T14:19:49;5.88;;;3.28;;
80136;SDS011;69466;55.948;37.484;2023-04-27T14:22:15;7.45;;;3.15;;
80136;SDS011;69466;55.948;37.484;2023-04-27T14:24:41;6.13;;;3.58;;
80136;SDS011;69466;55.948;37.484;2023-04-27T14:27:07;6.28;;;3.55;;
80136;SDS011;69466;55.948;37.484;2023-04-27T14:29:33;5.75;;;3.75;;
80136;SDS011;69466;55.948;37.484;2023-04-27T14:31:59;7.65;;;4.30;;
80136;SDS011;69466;55.948;37.484;2023-04-27T14:34:30;5.55;;;3.42;;
80136;SDS011;69466;55.948;37.484;2023-04-27T14:36:58;7.18;;;4.05;;
80136;SDS011;69466;55.948;37.484;2023-04-27T14:39:24;7.03;;;3.72;;
80136;SDS011;69466;55.948;37.484;2023-04-27T14:41:55;7.35;;;3.90;;